createdAt,value
2018-12-02T00:00:30.167Z,99848.98
2018-12-02T00:02:58.680Z,99848.63
2018-12-02T00:05:27.079Z,99848.04
2018-12-02T00:07:54.764Z,99844.91
2018-12-02T00:10:23.287Z,99839.09
2018-12-02T00:12:51.382Z,99834.47
2018-12-02T00:15:20.608Z,99829.60
2018-12-02T00:17:49.734Z,99827.77
2018-12-02T00:20:17.475Z,99818.13
2018-12-02T00:22:45.199Z,99820.39
2018-12-02T00:25:14.315Z,99813.91
2018-12-02T00:27:43.846Z,99810.36
2018-12-02T00:30:15.210Z,99812.13
2018-12-02T00:32:43.166Z,99808.58
2018-12-02T00:35:12.492Z,99801.56
2018-12-02T00:37:40.909Z,99797.30
2018-12-02T00:40:14.126Z,99795.94
2018-12-02T00:42:44.759Z,99793.50
2018-12-02T00:45:14.482Z,99777.30
2018-12-02T00:47:42.157Z,99787.69
2018-12-02T00:50:11.463Z,99780.13
2018-12-02T00:52:39.636Z,99776.58
2018-12-02T00:55:12.347Z,99773.59
2018-12-02T00:57:40.007Z,99764.17
2018-12-02T01:00:12.757Z,99769.12
2018-12-02T01:02:40.767Z,99759.58
2018-12-02T01:05:12.219Z,99756.38
2018-12-02T01:07:39.923Z,99749.61
2018-12-02T01:10:10.922Z,99742.00
2018-12-02T01:12:38.638Z,99741.18
2018-12-02T01:15:09.815Z,99744.58
2018-12-02T01:17:37.799Z,99743.57
2018-12-02T01:20:09.937Z,99742.42
2018-12-02T01:22:37.642Z,99740.05
2018-12-02T01:25:07.163Z,99740.30
2018-12-02T01:27:34.937Z,99730.26
2018-12-02T01:30:02.876Z,99724.27
2018-12-02T01:32:30.595Z,99729.81
2018-12-02T01:34:58.391Z,99732.13
2018-12-02T01:37:26.071Z,99730.01
2018-12-02T01:39:53.761Z,99730.20
2018-12-02T01:42:21.519Z,99727.98
2018-12-02T01:44:49.247Z,99724.72
2018-12-02T01:47:16.920Z,99731.18
2018-12-02T01:49:44.615Z,99727.09
2018-12-02T01:52:15.689Z,99733.37
2018-12-02T01:54:43.354Z,99725.76
2018-12-02T01:57:11.105Z,99723.69
2018-12-02T01:59:38.763Z,99724.64
2018-12-02T02:02:06.487Z,99718.36
2018-12-02T02:04:34.151Z,99708.47
2018-12-02T02:07:01.916Z,99705.95
2018-12-02T02:09:29.689Z,99695.21
2018-12-02T02:11:57.462Z,99695.30
2018-12-02T02:14:25.177Z,99689.30
2018-12-02T02:16:52.904Z,99681.92
2018-12-02T02:19:20.567Z,99669.88
2018-12-02T02:21:48.239Z,99670.59
2018-12-02T02:24:15.964Z,99676.23
2018-12-02T02:26:43.648Z,99664.66
2018-12-02T02:29:11.437Z,99663.52
2018-12-02T02:31:39.118Z,99655.81
2018-12-02T02:34:06.807Z,99648.03
2018-12-02T02:36:34.448Z,99647.99
2018-12-02T02:39:02.255Z,99646.59
2018-12-02T02:41:29.942Z,99645.52
2018-12-02T02:43:57.672Z,99641.66
2018-12-02T02:46:25.439Z,99636.81
2018-12-02T02:48:53.185Z,99634.09
2018-12-02T02:51:20.844Z,99620.62
2018-12-02T02:53:48.537Z,99608.90
2018-12-02T02:56:16.249Z,99603.48
2018-12-02T02:58:43.891Z,99602.09
2018-12-02T03:01:11.617Z,99598.33
2018-12-02T03:03:39.360Z,99600.22
2018-12-02T03:06:09.434Z,99593.38
2018-12-02T03:08:37.361Z,99589.83
2018-12-02T03:11:06.106Z,99584.99
2018-12-02T03:13:33.834Z,99583.25
2018-12-02T03:16:02.247Z,99577.96
2018-12-02T03:18:29.918Z,99569.79
2018-12-02T03:20:57.579Z,99562.06
2018-12-02T03:23:25.307Z,99558.83
2018-12-02T03:25:53.465Z,99551.98
2018-12-02T03:28:21.137Z,99553.35
2018-12-02T03:30:48.849Z,99547.11
2018-12-02T03:33:16.588Z,99540.88
2018-12-02T03:35:45.503Z,99535.42
2018-12-02T03:38:13.259Z,99529.98
2018-12-02T03:40:40.915Z,99526.43
2018-12-02T03:43:09.479Z,99524.08
2018-12-02T03:45:37.197Z,99529.75
2018-12-02T03:48:05.155Z,99522.44
2018-12-02T03:50:32.789Z,99514.08
2018-12-02T03:53:00.472Z,99509.48
2018-12-02T03:55:28.135Z,99509.20
2018-12-02T03:57:55.866Z,99511.66
2018-12-02T04:00:24.635Z,99503.58
2018-12-02T04:02:54.347Z,99508.77
2018-12-02T04:05:23.607Z,99505.20
2018-12-02T04:07:51.626Z,99512.86
2018-12-02T04:10:20.150Z,99505.52
2018-12-02T04:12:49.268Z,99507.70
2018-12-02T04:15:18.473Z,99509.56
2018-12-02T04:17:46.371Z,99503.33
2018-12-02T04:20:16.202Z,99502.67
2018-12-02T04:22:45.064Z,99503.23
2018-12-02T04:25:21.913Z,99502.67
2018-12-02T04:27:50.366Z,99496.56
2018-12-02T04:30:20.145Z,99495.48
2018-12-02T04:32:49.283Z,99495.00
2018-12-02T04:35:22.215Z,99487.85
2018-12-02T04:37:49.939Z,99477.94
2018-12-02T04:40:17.639Z,99478.86
2018-12-02T04:42:45.372Z,99475.56
2018-12-02T04:45:15.323Z,99482.63
2018-12-02T04:47:43.135Z,99480.73
2018-12-02T04:50:25.839Z,99475.82
2018-12-02T04:52:53.550Z,99465.97
2018-12-02T04:55:21.359Z,99469.06
2018-12-02T04:57:49.139Z,99472.05
2018-12-02T05:00:18.180Z,99469.04
2018-12-02T05:02:47.389Z,99461.66
2018-12-02T05:05:20.361Z,99453.27
2018-12-02T05:07:48.026Z,99446.14
2018-12-02T05:10:17.894Z,99450.99
2018-12-02T05:12:45.666Z,99449.06
2018-12-02T05:15:14.805Z,99444.16
2018-12-02T05:17:42.538Z,99436.23
2018-12-02T05:20:13.515Z,99433.83
2018-12-02T05:22:41.227Z,99429.20
2018-12-02T05:25:17.318Z,99425.97
2018-12-02T05:27:40.115Z,99423.19
2018-12-02T05:30:18.812Z,99415.84
2018-12-02T05:32:47.971Z,99417.27
2018-12-02T05:35:15.711Z,99402.22
2018-12-02T05:37:43.484Z,99406.84
2018-12-02T05:40:13.626Z,99397.57
2018-12-02T05:42:41.474Z,99400.32
2018-12-02T05:45:14.027Z,99394.05
2018-12-02T05:47:41.805Z,99393.85
2018-12-02T05:50:16.171Z,99383.22
2018-12-02T05:52:45.507Z,99388.43
2018-12-02T05:55:15.080Z,99385.94
2018-12-02T05:57:42.996Z,99370.70
2018-12-02T06:00:17.232Z,99373.98
2018-12-02T06:02:44.952Z,99368.55
2018-12-02T06:05:12.771Z,99376.45
2018-12-02T06:07:42.276Z,99372.34
2018-12-02T06:10:17.103Z,99371.27
2018-12-02T06:12:44.780Z,99364.45
2018-12-02T06:15:18.521Z,99359.55
2018-12-02T06:17:46.612Z,99355.75
2018-12-02T06:20:16.683Z,99356.28
2018-12-02T06:22:44.636Z,99353.28
2018-12-02T06:25:12.464Z,99355.20
2018-12-02T06:27:40.151Z,99348.91
2018-12-02T06:30:15.415Z,99349.76
2018-12-02T06:32:43.463Z,99345.67
2018-12-02T06:35:12.652Z,99341.02
2018-12-02T06:37:40.387Z,99339.94
2018-12-02T06:40:14.783Z,99334.52
2018-12-02T06:42:42.566Z,99336.94
2018-12-02T06:45:11.571Z,99329.07
2018-12-02T06:47:39.273Z,99334.29
2018-12-02T06:50:22.237Z,99334.29
2018-12-02T06:52:50.274Z,99336.78
2018-12-02T06:56:03.015Z,99332.95
2018-12-02T06:58:44.073Z,99326.61
2018-12-02T07:03:34.519Z,99332.05
2018-12-02T07:06:02.200Z,99332.67
2018-12-02T07:08:29.939Z,99325.86
2018-12-02T07:10:57.609Z,99322.31
2018-12-02T07:13:25.258Z,99325.86
2018-12-02T07:15:52.992Z,99329.41
2018-12-02T07:18:28.713Z,99329.69
2018-12-02T07:21:00.983Z,99324.78
2018-12-02T07:23:41.621Z,99324.23
2018-12-02T07:26:14.857Z,99319.07
2018-12-02T07:28:42.596Z,99326.96
2018-12-02T07:31:14.225Z,99320.16
2018-12-02T07:33:42.021Z,99316.05
2018-12-02T07:36:09.823Z,99313.31
2018-12-02T07:38:54.051Z,99311.96
2018-12-02T07:41:21.914Z,99312.54
2018-12-02T07:43:50.290Z,99312.52
2018-12-02T07:46:18.057Z,99306.81
2018-12-02T07:48:45.792Z,99304.09
2018-12-02T07:51:13.561Z,99301.64
2018-12-02T07:53:41.308Z,99305.73
2018-12-02T07:56:09.090Z,99302.80
2018-12-02T07:58:36.871Z,99298.17
2018-12-02T08:01:04.786Z,99300.35
2018-12-02T08:03:32.639Z,99297.61
2018-12-02T08:06:00.869Z,99286.72
2018-12-02T08:08:28.643Z,99289.17
2018-12-02T08:10:56.339Z,99287.02
2018-12-02T08:13:24.091Z,99285.47
2018-12-02T08:15:51.852Z,99279.16
2018-12-02T08:18:19.571Z,99281.10
2018-12-02T08:20:47.315Z,99287.11
2018-12-02T08:23:15.025Z,99279.50
2018-12-02T08:25:42.782Z,99282.53
2018-12-02T08:28:10.688Z,99283.63
2018-12-02T08:30:38.383Z,99292.37
2018-12-02T08:33:06.161Z,99287.27
2018-12-02T08:35:33.803Z,99283.98
2018-12-02T08:38:05.491Z,99281.83
2018-12-02T08:40:33.295Z,99285.92
2018-12-02T08:43:01.047Z,99277.53
2018-12-02T08:45:28.747Z,99280.23
2018-12-02T08:47:56.439Z,99273.18
2018-12-02T08:50:24.130Z,99266.91
2018-12-02T08:52:52.280Z,99270.80
2018-12-02T08:55:20.739Z,99266.77
2018-12-02T08:57:50.265Z,99259.42
2018-12-02T09:00:20.218Z,99242.57
2018-12-02T09:02:53.963Z,99241.27
2018-12-02T09:05:21.787Z,99241.61
2018-12-02T09:07:49.968Z,99235.45
2018-12-02T09:10:26.132Z,99239.87
2018-12-02T09:12:57.607Z,99251.63
2018-12-02T09:15:25.314Z,99244.59
2018-12-02T09:17:53.007Z,99245.39
2018-12-02T09:20:24.847Z,99246.71
2018-12-02T09:22:52.626Z,99240.48
2018-12-02T09:25:20.335Z,99244.58
2018-12-02T09:27:48.519Z,99244.85
2018-12-02T09:30:19.927Z,99248.39
2018-12-02T09:32:47.595Z,99233.66
2018-12-02T09:35:15.283Z,99239.39
2018-12-02T09:37:43.065Z,99246.48
2018-12-02T09:40:13.790Z,99244.34
2018-12-02T09:42:44.143Z,99251.45
2018-12-02T09:45:13.845Z,99245.72
2018-12-02T09:47:41.579Z,99255.50
2018-12-02T09:50:10.971Z,99248.40
2018-12-02T09:52:38.699Z,99241.03
2018-12-02T09:55:10.119Z,99235.86
2018-12-02T09:57:38.078Z,99235.84
2018-12-02T10:00:15.440Z,99239.63
2018-12-02T10:02:47.864Z,99238.84
2018-12-02T10:05:19.087Z,99234.22
2018-12-02T10:07:50.918Z,99228.16
2018-12-02T10:10:25.282Z,99228.70
2018-12-02T10:13:04.628Z,99234.70
2018-12-02T10:15:36.554Z,99220.56
2018-12-02T10:18:07.979Z,99214.58
2018-12-02T10:20:39.359Z,99210.52
2018-12-02T10:23:10.991Z,99209.98
2018-12-02T10:25:39.167Z,99211.34
2018-12-02T10:28:10.618Z,99203.70
2018-12-02T10:30:43.593Z,99201.84
2018-12-02T10:33:14.930Z,99197.16
2018-12-02T10:35:45.871Z,99199.34
2018-12-02T10:38:17.578Z,99196.06
2018-12-02T10:40:49.080Z,99202.06
2018-12-02T10:43:20.766Z,99195.52
2018-12-02T10:45:52.503Z,99195.52
2018-12-02T10:48:23.476Z,99193.06
2018-12-02T10:50:54.000Z,99193.88
2018-12-02T10:53:26.096Z,99193.10
2018-12-02T10:55:59.211Z,99193.37
2018-12-02T10:58:37.974Z,99193.42
2018-12-02T11:01:15.246Z,99196.97
2018-12-02T11:03:47.981Z,99195.61
2018-12-02T11:06:19.822Z,99197.84
2018-12-02T11:08:52.303Z,99196.47
2018-12-02T11:11:23.825Z,99185.02
2018-12-02T11:13:51.473Z,99182.28
2018-12-02T11:16:19.157Z,99187.55
2018-12-02T11:18:46.843Z,99186.49
2018-12-02T11:21:14.563Z,99186.22
2018-12-02T11:23:42.307Z,99191.44
2018-12-02T11:26:10.059Z,99186.83
2018-12-02T11:28:37.739Z,99192.30
2018-12-02T11:31:06.543Z,99195.84
2018-12-02T11:33:34.307Z,99195.05
2018-12-02T11:36:01.955Z,99201.31
2018-12-02T11:38:29.595Z,99194.78
2018-12-02T11:40:57.567Z,99204.64
2018-12-02T11:43:26.091Z,99197.81
2018-12-02T11:45:53.768Z,99201.91
2018-12-02T11:48:21.547Z,99185.83
2018-12-02T11:50:50.704Z,99190.23
2018-12-02T11:53:18.071Z,99186.97
2018-12-02T11:55:45.819Z,99184.78
2018-12-02T11:58:13.543Z,99183.72
2018-12-02T12:00:41.766Z,99185.41
2018-12-02T12:03:09.444Z,99179.41
2018-12-02T12:05:37.988Z,99181.08
2018-12-02T12:08:08.178Z,99178.87
2018-12-02T12:10:36.050Z,99170.67
2018-12-02T12:13:03.792Z,99180.80
2018-12-02T12:15:31.987Z,99175.60
2018-12-02T12:18:00.067Z,99180.27
2018-12-02T12:20:33.808Z,99176.97
2018-12-02T12:23:01.527Z,99187.09
2018-12-02T12:25:29.222Z,99183.55
2018-12-02T12:27:57.835Z,99179.72
2018-12-02T12:30:28.195Z,99176.73
2018-12-02T12:32:55.931Z,99180.55
2018-12-02T12:35:24.391Z,99168.80
2018-12-02T12:37:52.147Z,99164.44
2018-12-02T12:40:27.555Z,99170.44
2018-12-02T12:43:20.914Z,99170.46
2018-12-02T12:45:48.703Z,99170.73
2018-12-02T12:48:16.372Z,99164.16
2018-12-02T12:50:44.139Z,99169.36
2018-12-02T12:53:12.406Z,99165.81
2018-12-02T12:55:40.095Z,99164.17
2018-12-02T12:58:08.686Z,99167.45
2018-12-02T13:00:36.423Z,99164.70
2018-12-02T13:03:04.531Z,99163.06
2018-12-02T13:05:32.227Z,99164.70
2018-12-02T13:08:00.011Z,99165.27
2018-12-02T13:10:27.654Z,99169.08
2018-12-02T13:12:55.323Z,99169.91
2018-12-02T13:15:23.428Z,99169.36
2018-12-02T13:17:56.649Z,99170.17
2018-12-02T13:20:27.718Z,99175.66
2018-12-02T13:22:55.448Z,99174.82
2018-12-02T13:25:23.127Z,99168.80
2018-12-02T13:27:50.835Z,99178.39
2018-12-02T13:30:19.485Z,99172.92
2018-12-02T13:32:48.842Z,99173.17
2018-12-02T13:35:16.740Z,99175.36
2018-12-02T13:37:44.621Z,99170.16
2018-12-02T13:40:19.175Z,99175.63
2018-12-02T13:43:05.826Z,99176.74
2018-12-02T13:45:36.525Z,99188.78
2018-12-02T13:48:05.555Z,99177.83
2018-12-02T13:50:33.311Z,99186.84
2018-12-02T13:53:01.012Z,99180.28
2018-12-02T13:55:30.513Z,99181.92
2018-12-02T13:57:59.580Z,99184.92
2018-12-02T14:00:28.194Z,99190.97
2018-12-02T14:03:03.739Z,99190.40
2018-12-02T14:05:35.337Z,99184.66
2018-12-02T14:08:03.190Z,99201.07
2018-12-02T14:10:31.077Z,99193.69
2018-12-02T14:13:06.109Z,99201.35
2018-12-02T14:16:22.465Z,99201.63
2018-12-02T14:18:51.967Z,99202.19
2018-12-02T14:21:20.958Z,99203.54
2018-12-02T14:23:49.264Z,99203.27
2018-12-02T14:26:22.279Z,99210.94
2018-12-02T14:28:59.215Z,99210.64
2018-12-02T14:31:29.980Z,99206.83
2018-12-02T14:33:58.778Z,99206.28
2018-12-02T14:36:27.135Z,99205.73
2018-12-02T14:38:55.465Z,99215.83
2018-12-02T14:41:23.175Z,99211.20
2018-12-02T14:43:50.843Z,99209.55
2018-12-02T14:46:18.567Z,99216.41
2018-12-02T14:48:46.211Z,99222.96
2018-12-02T14:51:13.875Z,99224.06
2018-12-02T14:53:42.067Z,99218.56
2018-12-02T14:56:10.244Z,99226.25
2018-12-02T14:58:38.315Z,99223.78
2018-12-02T15:01:07.328Z,99229.52
2018-12-02T15:03:35.255Z,99237.19
2018-12-02T15:06:03.207Z,99244.31
2018-12-02T15:08:34.954Z,99241.56
2018-12-02T15:11:04.326Z,99253.89
2018-12-02T15:13:33.427Z,99259.09
2018-12-02T15:16:01.982Z,99260.47
2018-12-02T15:18:29.707Z,99265.94
2018-12-02T15:20:58.694Z,99261.55
2018-12-02T15:23:27.558Z,99269.78
2018-12-02T15:25:56.253Z,99274.70
2018-12-02T15:28:24.008Z,99270.04
2018-12-02T15:30:53.630Z,99270.32
2018-12-02T15:33:21.907Z,99265.66
2018-12-02T15:35:51.299Z,99275.81
2018-12-02T15:38:19.606Z,99274.97
2018-12-02T15:40:47.399Z,99278.81
2018-12-02T15:43:15.897Z,99280.72
2018-12-02T15:45:43.844Z,99280.73
2018-12-02T15:48:11.909Z,99277.72
2018-12-02T15:50:43.247Z,99277.98
2018-12-02T15:53:11.934Z,99286.49
2018-12-02T15:55:41.103Z,99290.59
2018-12-02T15:58:11.462Z,99293.05
2018-12-02T16:00:43.337Z,99293.86
2018-12-02T16:03:11.693Z,99288.38
2018-12-02T16:05:40.302Z,99291.95
2018-12-02T16:08:10.199Z,99287.86
2018-12-02T16:10:39.485Z,99287.84
2018-12-02T16:13:10.367Z,99284.55
2018-12-02T16:15:38.453Z,99278.55
2018-12-02T16:18:08.708Z,99275.25
2018-12-02T16:20:46.635Z,99281.55
2018-12-02T16:23:17.888Z,99286.48
2018-12-02T16:25:45.519Z,99287.58
2018-12-02T16:28:13.201Z,99298.00
2018-12-02T16:30:41.315Z,99298.27
2018-12-02T16:33:09.111Z,99297.16
2018-12-02T16:35:36.908Z,99288.96
2018-12-02T16:38:06.628Z,99288.67
2018-12-02T16:40:34.363Z,99290.05
2018-12-02T16:43:02.137Z,99282.38
2018-12-02T16:45:29.907Z,99285.40
2018-12-02T16:47:58.150Z,99290.05
2018-12-02T16:50:32.718Z,99299.63
2018-12-02T16:53:08.088Z,99301.81
2018-12-02T16:55:40.770Z,99304.00
2018-12-02T16:58:16.771Z,99308.13
2018-12-02T17:00:53.884Z,99312.23
2018-12-02T17:03:21.599Z,99309.22
2018-12-02T17:05:49.291Z,99318.55
2018-12-02T17:08:17.021Z,99324.30
2018-12-02T17:10:50.545Z,99324.84
2018-12-02T17:13:12.341Z,99330.85
2018-12-02T17:15:40.071Z,99332.50
2018-12-02T17:18:08.208Z,99334.70
2018-12-02T17:20:35.923Z,99331.41
2018-12-02T17:23:03.724Z,99331.13
2018-12-02T17:25:31.380Z,99331.68
2018-12-02T17:27:59.075Z,99329.48
2018-12-02T17:30:37.192Z,99327.03
2018-12-02T17:33:05.780Z,99335.80
2018-12-02T17:35:33.447Z,99333.03
2018-12-02T17:38:01.106Z,99327.30
2018-12-02T17:40:28.829Z,99338.83
2018-12-02T17:42:56.486Z,99334.44
2018-12-02T17:45:24.215Z,99334.42
2018-12-02T17:47:51.928Z,99331.98
2018-12-02T17:50:19.581Z,99322.93
2018-12-02T17:52:48.619Z,99331.15
2018-12-02T17:55:17.403Z,99327.04
2018-12-02T17:57:45.179Z,99322.66
2018-12-02T18:00:21.852Z,99322.93
2018-12-02T18:02:49.636Z,99320.45
2018-12-02T18:05:20.264Z,99327.31
2018-12-02T18:07:48.466Z,99321.83
2018-12-02T18:10:18.356Z,99322.09
2018-12-02T18:12:46.105Z,99325.66
2018-12-02T18:15:15.958Z,99322.09
2018-12-02T18:17:43.927Z,99319.64
2018-12-02T18:20:15.282Z,99316.62
2018-12-02T18:22:43.399Z,99317.73
2018-12-02T18:25:13.757Z,99318.28
2018-12-02T18:27:41.623Z,99317.44
2018-12-02T18:30:19.143Z,99311.14
2018-12-02T18:32:49.390Z,99317.45
2018-12-02T18:35:34.292Z,99306.47
2018-12-02T18:38:13.646Z,99314.16
2018-12-02T18:40:46.863Z,99307.02
2018-12-02T18:43:15.662Z,99297.72
2018-12-02T18:45:43.680Z,99298.55
2018-12-02T18:48:11.728Z,99297.17
2018-12-02T18:50:39.836Z,99297.98
2018-12-02T18:53:07.557Z,99305.41
2018-12-02T18:55:35.319Z,99309.77
2018-12-02T18:58:03.071Z,99317.72
2018-12-02T19:00:36.431Z,99316.34
2018-12-02T19:03:04.129Z,99318.27
2018-12-02T19:05:32.958Z,99316.90
2018-12-02T19:07:59.514Z,99313.05
2018-12-02T19:10:27.945Z,99310.03
2018-12-02T19:12:55.971Z,99315.53
2018-12-02T19:15:23.906Z,99314.98
2018-12-02T19:17:51.845Z,99307.02
2018-12-02T19:20:26.800Z,99310.87
2018-12-02T19:22:56.599Z,99312.23
2018-12-02T19:25:26.777Z,99319.09
2018-12-02T19:27:54.444Z,99323.20
2018-12-02T19:30:22.391Z,99319.89
2018-12-02T19:32:50.169Z,99309.48
2018-12-02T19:35:25.132Z,99316.87
2018-12-02T19:37:55.450Z,99315.23
2018-12-02T19:40:23.191Z,99311.41
2018-12-02T19:42:50.903Z,99305.09
2018-12-02T19:45:20.021Z,99312.48
2018-12-02T19:47:47.699Z,99315.50
2018-12-02T19:50:17.381Z,99314.95
2018-12-02T19:52:45.439Z,99311.67
2018-12-02T19:55:13.616Z,99318.80
2018-12-02T19:57:43.372Z,99310.85
2018-12-02T20:00:20.612Z,99310.87
2018-12-02T20:02:48.901Z,99316.34
2018-12-02T20:05:16.707Z,99328.68
2018-12-02T20:07:49.463Z,99319.09
2018-12-02T20:10:19.888Z,99332.52
2018-12-02T20:12:47.963Z,99326.47
2018-12-02T20:15:16.732Z,99319.09
2018-12-02T20:17:45.011Z,99330.59
2018-12-02T20:20:22.035Z,99327.31
2018-12-02T20:22:50.629Z,99332.49
2018-12-02T20:25:20.032Z,99326.76
2018-12-02T20:27:48.223Z,99334.41
2018-12-02T20:30:18.864Z,99341.28
2018-12-02T20:32:46.676Z,99344.57
2018-12-02T20:35:14.617Z,99344.84
2018-12-02T20:37:42.575Z,99341.28
2018-12-02T20:40:16.147Z,99336.06
2018-12-02T20:42:45.127Z,99343.47
2018-12-02T20:45:14.311Z,99343.20
2018-12-02T20:47:42.177Z,99345.92
2018-12-02T20:50:12.667Z,99341.02
2018-12-02T20:52:44.008Z,99333.89
2018-12-02T20:55:14.583Z,99329.22
2018-12-02T20:57:42.282Z,99330.03
2018-12-02T21:00:14.843Z,99323.19
2018-12-02T21:02:44.550Z,99318.00
2018-12-02T21:05:29.619Z,99317.72
2018-12-02T21:07:57.439Z,99314.98
2018-12-02T21:10:25.180Z,99314.96
2018-12-02T21:12:52.911Z,99311.95
2018-12-02T21:15:20.633Z,99313.61
2018-12-02T21:17:48.304Z,99310.05
2018-12-02T21:20:16.030Z,99309.23
2018-12-02T21:22:43.790Z,99311.69
2018-12-02T21:25:14.935Z,99311.95
2018-12-02T21:27:42.956Z,99314.16
2018-12-02T21:30:21.596Z,99308.92
2018-12-02T21:32:49.360Z,99312.50
2018-12-02T21:35:17.084Z,99310.02
2018-12-02T21:37:45.385Z,99303.72
2018-12-02T21:40:15.262Z,99296.88
2018-12-02T21:42:42.997Z,99292.77
2018-12-02T21:45:13.241Z,99291.68
2018-12-02T21:47:45.212Z,99285.34
2018-12-02T21:50:16.175Z,99283.72
2018-12-02T21:52:43.990Z,99290.27
2018-12-02T21:55:11.731Z,99300.42
2018-12-02T21:57:39.403Z,99292.75
2018-12-02T22:00:20.959Z,99299.91
2018-12-02T22:02:50.094Z,99299.34
2018-12-02T22:05:17.905Z,99298.80
2018-12-02T22:07:45.787Z,99296.86
2018-12-02T22:10:21.403Z,99303.71
2018-12-02T22:12:49.084Z,99298.80
2018-12-02T22:15:16.795Z,99298.23
2018-12-02T22:17:44.433Z,99294.95
2018-12-02T22:20:14.437Z,99288.94
2018-12-02T22:22:42.224Z,99280.44
2018-12-02T22:25:16.740Z,99282.05
2018-12-02T22:27:46.238Z,99271.11
2018-12-02T22:30:21.542Z,99272.77
2018-12-02T22:32:49.204Z,99271.38
2018-12-02T22:35:17.257Z,99268.38
2018-12-02T22:37:45.851Z,99273.02
2018-12-02T22:40:22.352Z,99283.45
2018-12-02T22:42:51.366Z,99270.83
2018-12-02T22:45:23.672Z,99277.13
2018-12-02T22:47:51.484Z,99274.13
2018-12-02T22:50:20.681Z,99270.28
2018-12-02T22:52:50.209Z,99272.17
2018-12-02T22:55:17.894Z,99268.63
2018-12-02T22:57:45.619Z,99269.98
2018-12-02T23:00:19.501Z,99264.25
2018-12-02T23:02:56.050Z,99254.13
2018-12-02T23:05:23.839Z,99253.54
2018-12-02T23:07:51.592Z,99236.01
2018-12-02T23:10:19.401Z,99231.61
2018-12-02T23:12:47.175Z,99236.30
2018-12-02T23:15:14.951Z,99234.39
2018-12-02T23:17:42.713Z,99244.23
2018-12-02T23:20:11.275Z,99236.83
2018-12-02T23:22:39.080Z,99249.98
2018-12-02T23:25:09.318Z,99246.98
2018-12-02T23:27:37.037Z,99245.04
2018-12-02T23:30:11.548Z,99240.66
2018-12-02T23:32:39.274Z,99244.22
2018-12-02T23:35:07.471Z,99246.70
2018-12-02T23:37:35.167Z,99249.70
2018-12-02T23:40:03.112Z,99243.94
2018-12-02T23:42:30.931Z,99249.98
2018-12-02T23:44:58.623Z,99249.44
2018-12-02T23:47:26.343Z,99256.02
2018-12-02T23:49:54.101Z,99245.31
2018-12-02T23:52:21.787Z,99241.77
2018-12-02T23:54:49.563Z,99251.89
2018-12-02T23:57:17.300Z,99252.70
2018-12-02T23:59:45.091Z,99255.47
